sensor_id;sensor_type;location;lat;lon;timestamp;P1;durP1;ratioP1;P2;durP2;ratioP2
69026;SDS011;56080;47.594;19.116;2023-12-20T00:07:59;20.70;;;10.20;;
69026;SDS011;56080;47.594;19.116;2023-12-20T00:17:59;19.10;;;9.60;;
69026;SDS011;56080;47.594;19.116;2023-12-20T00:27:59;19.80;;;8.70;;
69026;SDS011;56080;47.594;19.116;2023-12-20T00:37:58;18.70;;;8.80;;
69026;SDS011;56080;47.594;19.116;2023-12-20T00:48:01;22.40;;;10.10;;
69026;SDS011;56080;47.594;19.116;2023-12-20T00:57:59;18.50;;;8.90;;
69026;SDS011;56080;47.594;19.116;2023-12-20T01:07:59;22.40;;;10.30;;
69026;SDS011;56080;47.594;19.116;2023-12-20T01:18:00;23.50;;;10.20;;
69026;SDS011;56080;47.594;19.116;2023-12-20T01:27:59;19.50;;;8.60;;
69026;SDS011;56080;47.594;19.116;2023-12-20T01:37:58;24.60;;;10.90;;
69026;SDS011;56080;47.594;19.116;2023-12-20T01:47:59;26.00;;;11.40;;
69026;SDS011;56080;47.594;19.116;2023-12-20T01:57:59;25.30;;;11.10;;
69026;SDS011;56080;47.594;19.116;2023-12-20T02:07:59;24.70;;;10.60;;
69026;SDS011;56080;47.594;19.116;2023-12-20T02:18:00;21.20;;;9.30;;
69026;SDS011;56080;47.594;19.116;2023-12-20T02:27:59;21.30;;;9.20;;
69026;SDS011;56080;47.594;19.116;2023-12-20T02:37:58;20.50;;;9.60;;
69026;SDS011;56080;47.594;19.116;2023-12-20T02:48:01;21.80;;;9.00;;
69026;SDS011;56080;47.594;19.116;2023-12-20T02:57:59;21.70;;;9.60;;
69026;SDS011;56080;47.594;19.116;2023-12-20T03:07:59;23.80;;;10.40;;
69026;SDS011;56080;47.594;19.116;2023-12-20T03:17:59;24.30;;;10.20;;
69026;SDS011;56080;47.594;19.116;2023-12-20T03:27:59;21.70;;;9.90;;
69026;SDS011;56080;47.594;19.116;2023-12-20T03:37:59;24.60;;;10.60;;
69026;SDS011;56080;47.594;19.116;2023-12-20T03:47:59;25.40;;;10.30;;
69026;SDS011;56080;47.594;19.116;2023-12-20T03:57:59;30.50;;;12.30;;
69026;SDS011;56080;47.594;19.116;2023-12-20T04:08:01;21.80;;;10.30;;
69026;SDS011;56080;47.594;19.116;2023-12-20T04:18:00;24.70;;;10.70;;
69026;SDS011;56080;47.594;19.116;2023-12-20T04:27:59;24.80;;;10.20;;
69026;SDS011;56080;47.594;19.116;2023-12-20T04:37:59;22.10;;;9.70;;
69026;SDS011;56080;47.594;19.116;2023-12-20T04:47:59;24.40;;;11.00;;
69026;SDS011;56080;47.594;19.116;2023-12-20T04:57:59;25.20;;;11.10;;
69026;SDS011;56080;47.594;19.116;2023-12-20T05:07:59;25.70;;;11.70;;
69026;SDS011;56080;47.594;19.116;2023-12-20T05:17:59;22.20;;;9.90;;
69026;SDS011;56080;47.594;19.116;2023-12-20T05:27:59;20.60;;;9.30;;
69026;SDS011;56080;47.594;19.116;2023-12-20T05:37:59;27.70;;;12.00;;
69026;SDS011;56080;47.594;19.116;2023-12-20T05:47:59;23.70;;;10.70;;
69026;SDS011;56080;47.594;19.116;2023-12-20T05:57:59;27.40;;;12.00;;
69026;SDS011;56080;47.594;19.116;2023-12-20T06:08:00;23.20;;;11.40;;
69026;SDS011;56080;47.594;19.116;2023-12-20T06:17:59;24.00;;;10.20;;
69026;SDS011;56080;47.594;19.116;2023-12-20T06:27:59;26.10;;;11.10;;
69026;SDS011;56080;47.594;19.116;2023-12-20T06:37:58;23.50;;;10.50;;
69026;SDS011;56080;47.594;19.116;2023-12-20T06:47:58;25.60;;;10.90;;
69026;SDS011;56080;47.594;19.116;2023-12-20T06:57:59;23.90;;;10.20;;
69026;SDS011;56080;47.594;19.116;2023-12-20T07:07:58;23.10;;;10.30;;
69026;SDS011;56080;47.594;19.116;2023-12-20T07:17:59;26.90;;;12.40;;
69026;SDS011;56080;47.594;19.116;2023-12-20T07:27:58;23.10;;;10.80;;
69026;SDS011;56080;47.594;19.116;2023-12-20T07:37:58;26.90;;;11.80;;
69026;SDS011;56080;47.594;19.116;2023-12-20T07:47:59;24.60;;;11.60;;
69026;SDS011;56080;47.594;19.116;2023-12-20T07:57:57;30.20;;;13.20;;
69026;SDS011;56080;47.594;19.116;2023-12-20T08:07:58;25.00;;;11.20;;
69026;SDS011;56080;47.594;19.116;2023-12-20T08:17:58;22.10;;;9.90;;
69026;SDS011;56080;47.594;19.116;2023-12-20T08:37:57;24.90;;;11.50;;
69026;SDS011;56080;47.594;19.116;2023-12-20T08:47:57;26.80;;;12.70;;
69026;SDS011;56080;47.594;19.116;2023-12-20T08:57:58;27.10;;;12.40;;
69026;SDS011;56080;47.594;19.116;2023-12-20T09:07:58;24.30;;;10.60;;
69026;SDS011;56080;47.594;19.116;2023-12-20T09:17:57;24.90;;;10.60;;
69026;SDS011;56080;47.594;19.116;2023-12-20T09:27:57;21.40;;;10.40;;
69026;SDS011;56080;47.594;19.116;2023-12-20T09:37:58;26.20;;;12.20;;
69026;SDS011;56080;47.594;19.116;2023-12-20T09:47:59;26.40;;;11.70;;
69026;SDS011;56080;47.594;19.116;2023-12-20T09:57:59;26.00;;;11.90;;
69026;SDS011;56080;47.594;19.116;2023-12-20T10:07:58;29.50;;;13.60;;
69026;SDS011;56080;47.594;19.116;2023-12-20T10:17:58;24.30;;;11.40;;
69026;SDS011;56080;47.594;19.116;2023-12-20T10:28:13;26.70;;;12.90;;
69026;SDS011;56080;47.594;19.116;2023-12-20T10:37:57;31.60;;;14.60;;
69026;SDS011;56080;47.594;19.116;2023-12-20T10:47:59;28.90;;;14.60;;
69026;SDS011;56080;47.594;19.116;2023-12-20T10:58:03;31.90;;;15.00;;
69026;SDS011;56080;47.594;19.116;2023-12-20T11:08:07;26.90;;;12.90;;
69026;SDS011;56080;47.594;19.116;2023-12-20T11:18:04;31.00;;;14.80;;
69026;SDS011;56080;47.594;19.116;2023-12-20T11:28:20;42.90;;;21.20;;
69026;SDS011;56080;47.594;19.116;2023-12-20T11:37:58;42.70;;;21.90;;
69026;SDS011;56080;47.594;19.116;2023-12-20T11:48:02;36.50;;;18.60;;
69026;SDS011;56080;47.594;19.116;2023-12-20T11:57:59;33.60;;;17.10;;
69026;SDS011;56080;47.594;19.116;2023-12-20T12:07:58;35.20;;;17.90;;
69026;SDS011;56080;47.594;19.116;2023-12-20T12:18:07;35.60;;;17.70;;
69026;SDS011;56080;47.594;19.116;2023-12-20T12:28:01;40.40;;;20.90;;
69026;SDS011;56080;47.594;19.116;2023-12-20T12:37:59;36.00;;;19.80;;
69026;SDS011;56080;47.594;19.116;2023-12-20T12:47:59;37.10;;;18.90;;
69026;SDS011;56080;47.594;19.116;2023-12-20T12:58:00;36.70;;;18.90;;
69026;SDS011;56080;47.594;19.116;2023-12-20T13:08:00;30.40;;;16.90;;
69026;SDS011;56080;47.594;19.116;2023-12-20T13:18:00;25.20;;;13.30;;
69026;SDS011;56080;47.594;19.116;2023-12-20T13:28:00;11.80;;;6.00;;
69026;SDS011;56080;47.594;19.116;2023-12-20T13:38:02;10.00;;;5.40;;
69026;SDS011;56080;47.594;19.116;2023-12-20T13:48:01;9.10;;;4.70;;
69026;SDS011;56080;47.594;19.116;2023-12-20T13:58:07;9.40;;;4.70;;
69026;SDS011;56080;47.594;19.116;2023-12-20T14:08:02;8.30;;;4.30;;
69026;SDS011;56080;47.594;19.116;2023-12-20T14:18:04;8.00;;;4.90;;
69026;SDS011;56080;47.594;19.116;2023-12-20T14:28:03;9.20;;;4.60;;
69026;SDS011;56080;47.594;19.116;2023-12-20T14:38:03;8.60;;;4.60;;
69026;SDS011;56080;47.594;19.116;2023-12-20T14:48:03;8.10;;;3.90;;
69026;SDS011;56080;47.594;19.116;2023-12-20T14:58:03;9.10;;;4.40;;
69026;SDS011;56080;47.594;19.116;2023-12-20T15:08:03;9.20;;;4.20;;
69026;SDS011;56080;47.594;19.116;2023-12-20T15:18:05;7.50;;;4.10;;
69026;SDS011;56080;47.594;19.116;2023-12-20T15:28:04;8.50;;;3.90;;
69026;SDS011;56080;47.594;19.116;2023-12-20T15:38:05;8.60;;;4.00;;
69026;SDS011;56080;47.594;19.116;2023-12-20T15:48:05;6.90;;;3.60;;
69026;SDS011;56080;47.594;19.116;2023-12-20T15:58:06;6.70;;;3.30;;
69026;SDS011;56080;47.594;19.116;2023-12-20T16:08:07;7.10;;;3.40;;
69026;SDS011;56080;47.594;19.116;2023-12-20T16:18:06;7.80;;;3.90;;
69026;SDS011;56080;47.594;19.116;2023-12-20T16:28:07;8.20;;;4.20;;
69026;SDS011;56080;47.594;19.116;2023-12-20T16:38:07;9.40;;;4.50;;
69026;SDS011;56080;47.594;19.116;2023-12-20T16:48:07;9.60;;;4.90;;
69026;SDS011;56080;47.594;19.116;2023-12-20T16:58:08;8.50;;;4.60;;
69026;SDS011;56080;47.594;19.116;2023-12-20T17:08:08;9.00;;;4.90;;
69026;SDS011;56080;47.594;19.116;2023-12-20T17:18:11;8.10;;;4.00;;
69026;SDS011;56080;47.594;19.116;2023-12-20T17:28:09;8.20;;;4.00;;
69026;SDS011;56080;47.594;19.116;2023-12-20T17:38:09;7.80;;;4.50;;
69026;SDS011;56080;47.594;19.116;2023-12-20T17:48:11;7.20;;;3.90;;
69026;SDS011;56080;47.594;19.116;2023-12-20T17:58:10;11.70;;;6.90;;
69026;SDS011;56080;47.594;19.116;2023-12-20T18:08:13;16.30;;;9.50;;
69026;SDS011;56080;47.594;19.116;2023-12-20T18:18:11;15.60;;;8.90;;
69026;SDS011;56080;47.594;19.116;2023-12-20T18:28:11;13.70;;;7.90;;
69026;SDS011;56080;47.594;19.116;2023-12-20T18:38:13;18.00;;;8.50;;
69026;SDS011;56080;47.594;19.116;2023-12-20T18:48:12;16.80;;;8.90;;
69026;SDS011;56080;47.594;19.116;2023-12-20T18:58:12;15.20;;;8.70;;
69026;SDS011;56080;47.594;19.116;2023-12-20T19:08:12;15.10;;;8.90;;
69026;SDS011;56080;47.594;19.116;2023-12-20T19:18:13;14.60;;;7.60;;
69026;SDS011;56080;47.594;19.116;2023-12-20T19:28:14;14.50;;;8.00;;
69026;SDS011;56080;47.594;19.116;2023-12-20T19:38:12;14.90;;;8.50;;
69026;SDS011;56080;47.594;19.116;2023-12-20T19:48:14;13.50;;;7.90;;
69026;SDS011;56080;47.594;19.116;2023-12-20T19:58:13;14.40;;;7.80;;
69026;SDS011;56080;47.594;19.116;2023-12-20T20:08:15;12.90;;;7.50;;
69026;SDS011;56080;47.594;19.116;2023-12-20T20:18:17;13.20;;;7.30;;
69026;SDS011;56080;47.594;19.116;2023-12-20T20:28:14;12.50;;;6.90;;
69026;SDS011;56080;47.594;19.116;2023-12-20T20:48:26;12.00;;;6.30;;
69026;SDS011;56080;47.594;19.116;2023-12-20T21:08:13;11.90;;;7.00;;
69026;SDS011;56080;47.594;19.116;2023-12-20T21:18:13;14.10;;;7.20;;
69026;SDS011;56080;47.594;19.116;2023-12-20T21:28:14;12.30;;;7.10;;
69026;SDS011;56080;47.594;19.116;2023-12-20T21:38:14;13.30;;;7.40;;
69026;SDS011;56080;47.594;19.116;2023-12-20T21:48:14;14.20;;;7.90;;
69026;SDS011;56080;47.594;19.116;2023-12-20T21:58:14;12.10;;;7.00;;
69026;SDS011;56080;47.594;19.116;2023-12-20T22:08:16;13.30;;;7.70;;
69026;SDS011;56080;47.594;19.116;2023-12-20T22:18:15;15.20;;;7.80;;
69026;SDS011;56080;47.594;19.116;2023-12-20T22:28:15;11.50;;;7.10;;
69026;SDS011;56080;47.594;19.116;2023-12-20T22:38:15;12.30;;;6.40;;
69026;SDS011;56080;47.594;19.116;2023-12-20T22:48:16;10.50;;;5.40;;
69026;SDS011;56080;47.594;19.116;2023-12-20T22:58:15;8.80;;;4.80;;
69026;SDS011;56080;47.594;19.116;2023-12-20T23:08:17;7.80;;;4.50;;
69026;SDS011;56080;47.594;19.116;2023-12-20T23:18:15;9.30;;;4.70;;
69026;SDS011;56080;47.594;19.116;2023-12-20T23:28:16;8.90;;;5.00;;
69026;SDS011;56080;47.594;19.116;2023-12-20T23:38:15;7.40;;;4.10;;
69026;SDS011;56080;47.594;19.116;2023-12-20T23:48:16;7.00;;;3.40;;
69026;SDS011;56080;47.594;19.116;2023-12-20T23:58:17;8.00;;;4.00;;
